Time;durP1;ratioP1;P1;durP2;ratioP2;P2;SDS_P1;SDS_P2;PMS_P1;PMS_P2;Temp;Humidity;BMP_temperature;BMP_pressure;BME280_temperature;BME280_humidity;BME280_pressure;Samples;Min_cycle;Max_cycle;Signal;HPM_P1;HPM_P2
2021/11/09 00:01:16;;;;;;;10.03;4.50;;;;;;;7.83;90.11;102561.91;5009893;28;20215;-78
2021/11/09 00:03:49;;;;;;;12.77;4.80;;;;;;;7.86;90.04;102559.50;4994533;28;20211;-79
2021/11/09 00:08:49;;;;;;;13.43;5.20;;;;;;;7.91;90.78;102556.44;4993962;28;20637;-79
2021/11/09 00:11:14;;;;;;;12.47;4.60;;;;;;;7.93;91.12;102561.63;4994742;28;20203;-79
2021/11/09 00:13:40;;;;;;;9.70;4.33;;;;;;;7.93;91.09;102571.84;4995360;28;20668;-79
2021/11/09 00:16:05;;;;;;;12.37;5.10;;;;;;;7.94;91.00;102574.47;4993926;28;20208;-78
2021/11/09 00:18:30;;;;;;;11.77;4.47;;;;;;;7.96;91.14;102566.88;4995075;28;20657;-79
2021/11/09 00:20:57;;;;;;;15.30;4.80;;;;;;;7.96;90.83;102574.53;4994585;28;20704;-79
2021/11/09 00:23:22;;;;;;;13.20;4.47;;;;;;;7.95;90.75;102578.78;4995371;28;20246;-79
2021/11/09 00:25:48;;;;;;;8.97;3.87;;;;;;;7.97;91.33;102569.53;4994392;28;20187;-79
2021/11/09 00:28:13;;;;;;;11.90;4.30;;;;;;;7.99;91.27;102570.53;4994826;28;20568;-79
2021/11/09 00:30:39;;;;;;;11.50;3.90;;;;;;;8.01;90.65;102574.03;5009379;28;20716;-77
2021/11/09 00:33:05;;;;;;;11.07;4.93;;;;;;;8.02;91.38;102567.25;5010077;28;20179;-78
2021/11/09 00:35:32;;;;;;;12.73;4.60;;;;;;;8.02;91.98;102564.72;4993252;28;20219;-77
2021/11/09 00:38:00;;;;;;;13.77;4.53;;;;;;;8.05;91.51;102565.75;4994276;28;20191;-79
2021/11/09 00:40:27;;;;;;;14.10;4.67;;;;;;;8.04;91.91;102565.66;4993857;28;20626;-78
2021/11/09 00:42:53;;;;;;;10.77;4.10;;;;;;;8.05;92.09;102557.22;4992622;28;20195;-78
2021/11/09 00:45:18;;;;;;;14.30;4.30;;;;;;;8.07;91.66;102561.59;5009630;28;20267;-79
2021/11/09 00:47:45;;;;;;;20.83;4.87;;;;;;;8.08;91.96;102563.38;4993821;28;20242;-77
2021/11/09 00:50:13;;;;;;;12.07;4.03;;;;;;;8.11;92.05;102570.34;4994336;28;20204;-78
2021/11/09 00:52:38;;;;;;;13.07;4.60;;;;;;;8.11;91.81;102573.75;4976892;28;20192;-78
2021/11/09 00:55:05;;;;;;;14.10;5.30;;;;;;;8.12;91.73;102567.88;5009730;28;20233;-78
2021/11/09 00:57:30;;;;;;;15.23;5.87;;;;;;;8.11;92.26;102571.19;4993808;28;20220;-79
2021/11/09 00:59:55;;;;;;;13.13;4.87;;;;;;;8.13;92.13;102566.19;4993317;28;20203;-77
2021/11/09 01:02:21;;;;;;;15.30;4.47;;;;;;;8.14;92.06;102560.28;4993597;28;20267;-78
2021/11/09 01:04:47;;;;;;;11.23;5.10;;;;;;;8.15;92.11;102565.47;4994032;28;20211;-78
2021/11/09 01:07:12;;;;;;;15.93;4.80;;;;;;;8.16;91.66;102564.69;4993494;28;20269;-78
2021/11/09 01:09:37;;;;;;;12.77;4.33;;;;;;;8.16;91.52;102556.16;4993344;28;20211;-78
2021/11/09 01:12:04;;;;;;;14.63;5.20;;;;;;;8.17;91.60;102550.25;4994065;28;20188;-79
2021/11/09 01:14:30;;;;;;;12.93;4.57;;;;;;;8.16;91.34;102548.50;4994217;28;20266;-78
2021/11/09 01:16:56;;;;;;;13.57;4.90;;;;;;;8.14;92.23;102545.88;5012409;28;20184;-79
2021/11/09 01:19:22;;;;;;;11.60;4.83;;;;;;;8.16;91.51;102548.50;5013335;28;20199;-77
2021/11/09 01:21:47;;;;;;;13.40;4.60;;;;;;;8.13;91.06;102539.03;4996908;28;20196;-79
2021/11/09 01:24:14;;;;;;;13.30;5.17;;;;;;;8.12;90.86;102544.91;5012569;28;20222;-79
2021/11/09 01:26:40;;;;;;;13.20;4.43;;;;;;;8.12;91.80;102536.38;5012795;28;20227;-78
2021/11/09 01:29:07;;;;;;;15.23;4.57;;;;;;;8.10;91.36;102549.03;5011952;28;20235;-78
2021/11/09 01:31:34;;;;;;;17.00;5.30;;;;;;;8.11;91.44;102544.81;5011858;28;20239;-79
2021/11/09 01:33:59;;;;;;;17.53;6.20;;;;;;;8.09;91.67;102542.19;4997909;28;20250;-78
2021/11/09 01:36:26;;;;;;;16.20;5.10;;;;;;;8.12;91.09;102550.03;4995819;28;20660;-79
2021/11/09 01:38:52;;;;;;;12.70;5.10;;;;;;;8.13;91.64;102550.88;4997725;28;20534;-78
2021/11/09 01:41:18;;;;;;;13.20;5.40;;;;;;;8.13;91.46;102551.78;5012895;28;20211;-79
2021/11/09 01:43:44;;;;;;;9.70;4.33;;;;;;;8.14;91.91;102556.06;4997688;28;20200;-79
2021/11/09 01:46:14;;;;;;;14.17;4.30;;;;;;;8.16;90.97;102553.63;4997271;28;20188;-78
2021/11/09 01:48:40;;;;;;;13.20;4.63;;;;;;;8.17;91.66;102558.81;4996986;28;20188;-79
2021/11/09 01:51:14;;;;;;;11.90;4.53;;;;;;;8.15;91.03;102549.31;4977169;28;20267;-77
2021/11/09 01:53:40;;;;;;;14.83;4.73;;;;;;;8.16;91.19;102554.47;5009747;28;20214;-78
2021/11/09 01:56:10;;;;;;;13.97;5.20;;;;;;;8.16;91.54;102564.69;4995733;28;20630;-77
2021/11/09 01:58:36;;;;;;;12.47;5.23;;;;;;;8.17;91.08;102566.47;4995942;28;20199;-77
2021/11/09 02:01:08;;;;;;;15.60;5.57;;;;;;;8.20;91.18;102568.31;5012148;28;20291;-79
2021/11/09 02:03:36;;;;;;;12.27;4.63;;;;;;;8.17;91.53;102557.91;4997426;28;20215;-78
2021/11/09 02:06:02;;;;;;;13.83;5.07;;;;;;;8.21;91.93;102562.44;4997116;28;20180;-77
2021/11/09 02:08:28;;;;;;;12.67;4.87;;;;;;;8.16;91.72;102557.03;4997357;28;20555;-78
2021/11/09 02:10:55;;;;;;;13.10;4.40;;;;;;;8.18;92.10;102557.13;5012194;28;20235;-78
2021/11/09 02:13:22;;;;;;;15.17;4.83;;;;;;;8.20;91.19;102558.09;4996953;28;20196;-78
2021/11/09 02:15:48;;;;;;;15.73;5.07;;;;;;;8.18;90.93;102557.13;4996752;28;20758;-78
2021/11/09 02:18:16;;;;;;;13.17;4.97;;;;;;;8.17;92.03;102555.38;4996478;28;20729;-78
2021/11/09 02:20:51;;;;;;;12.30;4.70;;;;;;;8.17;91.42;102558.81;5022836;23;20246;-78
2021/11/09 02:23:17;;;;;;;14.70;5.73;;;;;;;8.19;91.25;102564.88;5012294;28;20195;-78
2021/11/09 02:25:42;;;;;;;17.20;5.43;;;;;;;8.17;91.49;102566.47;5013188;28;20647;-79
2021/11/09 02:28:08;;;;;;;14.90;5.53;;;;;;;8.19;92.43;102562.31;5013649;28;20206;-78
2021/11/09 02:30:33;;;;;;;14.50;5.50;;;;;;;8.20;91.15;102565.75;5014904;28;20211;-77
2021/11/09 02:33:00;;;;;;;15.37;5.67;;;;;;;8.21;91.46;102570.97;5013639;28;20191;-79
2021/11/09 02:35:26;;;;;;;13.47;6.83;;;;;;;8.19;91.52;102566.53;4994603;28;20268;-78
2021/11/09 02:37:54;;;;;;;15.37;6.00;;;;;;;8.16;91.77;102566.38;5011962;28;20693;-78
2021/11/09 02:40:20;;;;;;;14.83;6.10;;;;;;;8.17;91.90;102563.91;5011465;28;20214;-78
2021/11/09 02:42:52;;;;;;;15.70;6.47;;;;;;;8.20;91.26;102568.31;5011590;28;20191;-77
2021/11/09 02:45:24;;;;;;;14.00;5.67;;;;;;;8.20;91.91;102574.31;5013351;28;20182;-79
2021/11/09 02:47:58;;;;;;;17.73;6.03;;;;;;;8.22;91.26;102576.94;5011851;28;20278;-79
2021/11/09 02:50:28;;;;;;;13.77;6.00;;;;;;;8.21;91.20;102583.72;5012081;28;20242;-79
2021/11/09 02:53:01;;;;;;;15.77;6.23;;;;;;;8.22;91.27;102577.84;4995740;28;20269;-79
2021/11/09 02:55:32;;;;;;;15.37;5.90;;;;;;;8.24;91.83;102577.94;5011963;28;20255;-79
2021/11/09 02:58:09;;;;;;;11.20;5.63;;;;;;;8.26;91.21;102584.00;5012821;28;20219;-79
2021/11/09 03:00:42;;;;;;;19.23;6.40;;;;;;;8.22;92.03;102588.03;4995385;28;20238;-77
2021/11/09 03:03:14;;;;;;;16.97;6.37;;;;;;;8.23;91.81;102586.34;5012376;28;20274;-78
2021/11/09 03:05:50;;;;;;;11.13;5.80;;;;;;;8.22;91.89;102590.59;5013597;28;20172;-77
2021/11/09 03:08:30;;;;;;;12.00;6.03;;;;;;;8.21;91.52;102593.06;5011995;28;20422;-79
2021/11/09 03:10:56;;;;;;;11.47;6.33;;;;;;;8.20;92.30;102596.38;4992308;28;20211;-80
2021/11/09 03:13:22;;;;;;;14.33;6.40;;;;;;;8.18;91.81;102595.38;5012111;28;20247;-80
2021/11/09 03:15:52;;;;;;;20.50;6.50;;;;;;;8.18;91.57;102603.94;5012078;28;20266;-79
2021/11/09 03:18:21;;;;;;;16.13;5.87;;;;;;;8.14;91.04;102602.00;5012509;28;20209;-78
2021/11/09 03:20:55;;;;;;;14.03;6.17;;;;;;;8.18;91.81;102608.16;5012446;28;20215;-79
2021/11/09 03:45:21;;;;;;;15.13;5.93;;;;;;;8.26;91.42;102635.91;5016848;28;20175;-79
2021/11/09 03:47:50;;;;;;;12.63;6.07;;;;;;;8.26;91.71;102640.13;5013711;28;20372;-79
2021/11/09 03:50:18;;;;;;;15.87;6.33;;;;;;;8.25;91.95;102646.03;5013519;28;20297;-79
2021/11/09 03:52:49;;;;;;;14.43;6.67;;;;;;;8.26;92.13;102637.56;4997144;28;20179;-78
2021/11/09 03:55:23;;;;;;;12.47;6.07;;;;;;;8.28;92.01;102641.97;5013660;28;20571;-79
2021/11/09 03:58:04;;;;;;;14.27;6.10;;;;;;;8.29;91.84;102642.88;5013831;28;20210;-79
2021/11/09 04:00:35;;;;;;;14.80;6.87;;;;;;;8.27;91.02;102637.66;5015052;28;20238;-79
2021/11/09 04:05:36;;;;;;;16.53;6.53;;;;;;;8.28;92.28;102623.22;5013721;28;20186;-79
2021/11/09 04:08:13;;;;;;;21.60;6.17;;;;;;;8.23;91.65;102633.19;5014020;28;20206;-79
2021/11/09 04:10:47;;;;;;;14.90;6.13;;;;;;;8.21;92.46;102639.84;5013078;28;20406;-78
2021/11/09 04:13:26;;;;;;;14.97;5.93;;;;;;;8.22;91.90;102631.44;5013585;28;20214;-79
2021/11/09 04:26:47;;;;;;;18.33;6.93;;;;;;;8.22;91.69;102631.44;5012253;28;20191;-79
2021/11/09 04:31:56;;;;;;;17.70;6.63;;;;;;;8.23;92.33;102643.38;5014259;28;20210;-79
2021/11/09 04:34:53;;;;;;;17.60;6.50;;;;;;;8.25;91.95;102636.69;5013470;28;20679;-79
2021/11/09 04:48:44;;;;;;;20.03;7.07;;;;;;;8.24;91.97;102641.72;5011669;28;20187;-78
2021/11/09 04:51:39;;;;;;;15.33;7.57;;;;;;;8.22;91.96;102641.63;5014088;28;20302;-79
2021/11/09 05:02:39;;;;;;;26.47;10.97;;;;;;;8.19;92.72;102630.31;5020273;28;20187;-78
2021/11/09 05:08:34;;;;;;;23.97;12.30;;;;;;;8.21;93.41;102652.59;5019497;28;20184;-79
2021/11/09 05:10:37;;;;;;;25.77;11.57;;;;;;;8.20;92.81;102649.97;5012994;28;20223;-80
2021/11/09 05:13:02;;;;;;;20.77;10.70;;;;;;;8.18;92.75;102646.41;5018260;28;20183;-79
2021/11/09 05:15:28;;;;;;;25.60;9.97;;;;;;;8.19;92.65;102654.16;5017297;28;20199;-80
2021/11/09 05:17:53;;;;;;;19.70;9.97;;;;;;;8.16;92.24;102658.22;5017976;28;20187;-78
2021/11/09 05:20:19;;;;;;;25.97;12.10;;;;;;;8.15;92.69;102662.44;5018364;28;20237;-79
2021/11/09 05:22:45;;;;;;;25.83;14.53;;;;;;;8.20;92.53;102667.81;5000663;28;20199;-77
2021/11/09 05:25:11;;;;;;;29.13;13.90;;;;;;;8.23;93.11;102670.56;5000086;28;20180;-79
2021/11/09 05:27:36;;;;;;;28.93;16.50;;;;;;;8.24;92.56;102672.34;5016279;28;20187;-77
2021/11/09 05:30:03;;;;;;;33.07;17.90;;;;;;;8.26;92.66;102674.19;5018317;28;20265;-79
2021/11/09 05:32:28;;;;;;;37.53;19.67;;;;;;;8.28;92.76;102676.81;5016235;28;20724;-79
2021/11/09 05:34:54;;;;;;;34.53;19.23;;;;;;;8.27;92.78;102668.28;5000364;28;20207;-80
2021/11/09 05:37:22;;;;;;;35.27;19.40;;;;;;;8.29;93.17;102674.34;5014960;28;20195;-79
2021/11/09 05:39:54;;;;;;;32.90;19.40;;;;;;;8.27;92.85;102675.06;5017194;28;20211;-80
2021/11/09 05:42:19;;;;;;;34.37;19.00;;;;;;;8.26;92.79;102675.84;5017029;28;20179;-79
2021/11/09 05:44:45;;;;;;;34.53;19.53;;;;;;;8.28;93.25;102670.03;5015275;28;20183;-79
2021/11/09 05:47:12;;;;;;;35.87;19.63;;;;;;;8.27;93.31;102675.94;5014491;28;20646;-78
2021/11/09 05:49:38;;;;;;;34.83;20.20;;;;;;;8.27;92.59;102677.59;5014391;28;20198;-78
2021/11/09 05:52:03;;;;;;;32.73;18.30;;;;;;;8.30;93.40;102677.78;4994828;28;20188;-79
2021/11/09 05:54:29;;;;;;;31.33;20.00;;;;;;;8.32;93.17;102686.41;5011371;28;20697;-78
2021/11/09 05:56:54;;;;;;;39.33;19.70;;;;;;;8.33;92.75;102688.16;4998221;28;20656;-76
2021/11/09 05:59:20;;;;;;;38.93;20.17;;;;;;;8.30;93.44;102690.56;5013425;28;20214;-79
2021/11/09 06:01:47;;;;;;;38.83;19.83;;;;;;;8.32;93.55;102701.72;4994551;28;20191;-79
2021/11/09 06:04:12;;;;;;;39.57;20.37;;;;;;;8.32;92.76;102707.72;5014929;28;20198;-80
2021/11/09 06:06:38;;;;;;;36.50;19.47;;;;;;;8.31;93.42;102700.84;5016471;28;20183;-79
2021/11/09 06:09:03;;;;;;;32.27;18.40;;;;;;;8.31;93.04;102705.06;4996312;28;20602;-79
2021/11/09 06:11:29;;;;;;;34.70;18.47;;;;;;;8.29;93.57;102704.97;5015695;28;20313;-79
2021/11/09 06:13:54;;;;;;;30.90;19.00;;;;;;;8.32;93.29;102712.81;5015721;28;20202;-78
2021/11/09 06:16:20;;;;;;;30.20;18.67;;;;;;;8.32;92.40;102715.38;5015030;28;20219;-78
2021/11/09 06:18:45;;;;;;;33.30;19.63;;;;;;;8.32;92.28;102722.13;5016203;28;20199;-80
2021/11/09 06:21:10;;;;;;;33.57;19.43;;;;;;;8.32;92.96;102729.78;5016435;28;20230;-79
2021/11/09 06:23:36;;;;;;;35.43;19.10;;;;;;;8.31;92.55;102723.81;5015826;28;20660;-80
2021/11/09 06:26:02;;;;;;;30.93;19.17;;;;;;;8.34;92.71;102739.28;5015503;28;20184;-77
2021/11/09 06:28:28;;;;;;;28.13;17.63;;;;;;;8.34;92.59;102748.63;5015977;28;20179;-79
2021/11/09 06:30:53;;;;;;;27.00;17.93;;;;;;;8.34;93.34;102752.06;5013077;28;20218;-77
2021/11/09 06:33:20;;;;;;;30.20;17.97;;;;;;;8.34;93.16;102753.75;5014013;28;20191;-79
2021/11/09 06:35:46;;;;;;;30.30;17.17;;;;;;;8.33;92.73;102755.41;5013193;28;20218;-78
2021/11/09 06:38:11;;;;;;;25.67;15.47;;;;;;;8.36;92.52;102767.47;5013554;28;20195;-79
2021/11/09 06:40:37;;;;;;;26.57;13.93;;;;;;;8.37;92.50;102757.34;5013325;28;20218;-77
2021/11/09 06:43:03;;;;;;;20.87;14.67;;;;;;;8.35;92.34;102755.50;5014338;28;20179;-79
2021/11/09 06:45:29;;;;;;;23.63;14.80;;;;;;;8.37;93.08;102761.56;5012737;28;20184;-79
2021/11/09 06:47:55;;;;;;;25.07;14.83;;;;;;;8.39;93.17;102772.75;5012747;28;20188;-79
2021/11/09 06:50:21;;;;;;;21.70;13.80;;;;;;;8.39;92.30;102771.06;5012539;28;20214;-79
2021/11/09 06:52:47;;;;;;;23.63;13.40;;;;;;;8.40;92.40;102765.19;5013162;28;20191;-79
2021/11/09 06:55:12;;;;;;;21.43;13.10;;;;;;;8.42;92.77;102768.72;4996236;28;20607;-79
2021/11/09 06:57:37;;;;;;;20.43;13.63;;;;;;;8.43;91.83;102770.47;5012409;28;20191;-79
2021/11/09 07:00:06;;;;;;;20.50;13.60;;;;;;;8.42;92.04;102775.47;4992709;28;20680;-77
2021/11/09 07:02:34;;;;;;;27.57;13.80;;;;;;;8.39;92.48;102786.38;4993313;28;20203;-77
2021/11/09 07:04:59;;;;;;;19.97;14.43;;;;;;;8.39;92.22;102776.16;5012060;28;20191;-79
2021/11/09 07:07:24;;;;;;;21.30;13.33;;;;;;;8.39;91.79;102765.97;5011650;28;20183;-79
2021/11/09 07:09:50;;;;;;;21.73;13.30;;;;;;;8.41;92.18;102766.94;5013571;28;20207;-79
2021/11/09 07:12:15;;;;;;;22.57;13.77;;;;;;;8.43;92.42;102760.25;5012257;28;20710;-78
2021/11/09 07:14:41;;;;;;;21.03;11.70;;;;;;;8.44;91.94;102762.00;5011050;28;20207;-80
2021/11/09 07:17:07;;;;;;;24.50;12.67;;;;;;;8.46;92.36;102763.00;4991965;28;20577;-79
2021/11/09 07:19:35;;;;;;;17.80;11.17;;;;;;;8.49;91.95;102767.41;4992247;28;20318;-79
2021/11/09 07:22:00;;;;;;;18.80;11.03;;;;;;;8.51;91.57;102765.81;5011992;28;20210;-80
2021/11/09 07:24:26;;;;;;;20.00;11.20;;;;;;;8.49;92.21;102765.75;5013046;28;20703;-79
2021/11/09 07:26:51;;;;;;;18.80;10.93;;;;;;;8.51;91.88;102771.81;4995185;28;20196;-79
2021/11/09 07:29:16;;;;;;;16.73;10.33;;;;;;;8.54;91.45;102766.88;4995084;28;20211;-77
2021/11/09 07:31:42;;;;;;;18.77;10.13;;;;;;;8.59;91.67;102769.69;4995570;28;20286;-77
2021/11/09 07:34:07;;;;;;;17.27;11.00;;;;;;;8.56;91.63;102766.94;5011770;28;20277;-79
2021/11/09 07:36:35;;;;;;;16.97;10.43;;;;;;;8.51;91.52;102766.69;4994716;28;20202;-77
2021/11/09 07:39:01;;;;;;;18.73;10.13;;;;;;;8.46;91.33;102770.66;5011644;28;20870;-76
2021/11/09 07:41:26;;;;;;;16.87;10.10;;;;;;;8.43;91.10;102783.22;5011680;28;20187;-80
2021/11/09 07:43:52;;;;;;;15.87;10.03;;;;;;;8.41;91.12;102786.47;4991259;28;20649;-79
2021/11/09 07:46:18;;;;;;;15.93;9.33;;;;;;;8.35;91.02;102786.13;4974190;28;20188;-78
2021/11/09 07:48:43;;;;;;;17.60;9.23;;;;;;;8.41;90.55;102784.81;5010424;28;20192;-79
2021/11/09 07:51:09;;;;;;;13.80;8.93;;;;;;;8.45;90.86;102791.88;5010460;28;20572;-77
2021/11/09 07:53:36;;;;;;;16.20;8.80;;;;;;;8.44;90.26;102791.78;5012793;28;20230;-77
2021/11/09 07:58:37;;;;;;;15.33;8.30;;;;;;;8.41;90.93;102791.59;5012969;28;20199;-78
2021/11/09 08:01:13;;;;;;;17.73;6.90;;;;;;;8.41;90.62;102795.03;5014022;28;20203;-80
2021/11/09 08:06:49;;;;;;;13.00;6.53;;;;;;;8.54;90.23;102806.84;4990072;28;20612;-78
2021/11/09 08:11:44;;;;;;;13.97;5.47;;;;;;;8.63;90.42;102804.81;4996717;28;20187;-80
2021/11/09 08:14:11;;;;;;;10.87;5.40;;;;;;;8.67;89.76;102799.13;5012734;28;20219;-78
2021/11/09 08:16:37;;;;;;;12.60;5.40;;;;;;;8.77;89.89;102802.28;5011424;28;20200;-79
2021/11/09 08:19:02;;;;;;;12.60;5.23;;;;;;;8.92;89.59;102800.63;5012113;28;20187;-79
2021/11/09 08:21:28;;;;;;;15.97;5.90;;;;;;;9.06;88.70;102801.38;5016563;28;20183;-77
2021/11/09 08:23:53;;;;;;;9.20;5.40;;;;;;;9.09;88.36;102796.47;5018504;28;20211;-78
2021/11/09 08:26:22;;;;;;;10.60;5.17;;;;;;;9.26;87.74;102795.75;5013133;28;20183;-79
2021/11/09 08:28:48;;;;;;;11.67;5.63;;;;;;;9.33;87.90;102797.81;5012768;28;20198;-78
2021/11/09 08:31:17;;;;;;;12.63;6.33;;;;;;;9.45;87.10;102804.50;4996141;28;20187;-79
2021/11/09 08:33:43;;;;;;;10.60;5.67;;;;;;;9.69;86.65;102810.09;4994496;28;20187;-79
2021/11/09 08:36:11;;;;;;;8.90;5.10;;;;;;;9.81;85.98;102805.63;4993260;28;20436;-79
2021/11/09 08:38:37;;;;;;;11.83;6.27;;;;;;;9.98;85.63;102808.28;5012130;28;20491;-77
2021/11/09 08:41:05;;;;;;;10.10;5.83;;;;;;;10.00;84.32;102810.94;5012304;28;20292;-77
2021/11/09 08:43:34;;;;;;;10.87;6.37;;;;;;;11.73;80.03;102806.13;4995867;28;20742;-78
2021/11/09 08:46:04;;;;;;;9.67;5.10;;;;;;;14.07;68.33;102794.56;5011789;28;20175;-79
2021/11/09 08:48:35;;;;;;;10.30;5.30;;;;;;;16.35;60.50;102783.06;5011984;28;20555;-78
2021/11/09 08:51:00;;;;;;;8.77;5.10;;;;;;;16.60;58.51;102791.56;5012280;28;20211;-78
2021/11/09 08:53:34;;;;;;;7.33;5.83;;;;;;;16.62;58.28;102789.00;5012570;28;20194;-79
2021/11/09 09:01:42;;;;;;;11.60;6.20;;;;;;;16.71;56.74;102799.59;5012238;28;20227;-78
2021/11/09 09:06:31;;;;;;;9.43;5.63;;;;;;;17.07;56.14;102795.31;5011075;28;20567;-78
2021/11/09 09:08:58;;;;;;;9.50;5.43;;;;;;;14.47;63.88;102815.81;5011235;28;20199;-77
2021/11/09 09:11:24;;;;;;;9.77;5.93;;;;;;;13.67;67.31;102818.78;4994680;28;20195;-79
2021/11/09 09:13:50;;;;;;;12.50;6.37;;;;;;;15.83;61.82;102809.16;5010288;28;20194;-78
2021/11/09 09:16:16;;;;;;;10.80;6.47;;;;;;;17.20;56.78;102805.13;5011745;28;20211;-78
2021/11/09 09:18:41;;;;;;;9.57;6.90;;;;;;;16.59;57.11;102807.03;5012097;28;20571;-77
2021/11/09 09:21:14;;;;;;;11.57;7.60;;;;;;;15.99;58.95;102811.38;5010670;28;20230;-79
2021/11/09 09:24:00;;;;;;;12.40;7.90;;;;;;;16.64;57.99;102805.44;5012175;28;20202;-77
2021/11/09 09:26:33;;;;;;;13.90;8.47;;;;;;;16.75;57.21;102804.00;5010167;28;20301;-79
2021/11/09 09:55:58;;;;;;;19.03;11.20;;;;;;;19.19;50.21;102792.78;5009608;28;20209;-77
2021/11/09 09:58:24;;;;;;;19.07;11.70;;;;;;;18.60;51.66;102804.75;5012155;28;20215;-78
2021/11/09 10:00:50;;;;;;;18.40;13.00;;;;;;;19.82;48.62;102791.13;5013721;28;20195;-78
2021/11/09 10:03:15;;;;;;;19.30;12.20;;;;;;;19.70;48.01;102791.84;5014299;28;20668;-80
2021/11/09 10:05:42;;;;;;;20.03;12.57;;;;;;;19.21;49.44;102801.50;4997832;28;20219;-78
2021/11/09 10:08:15;;;;;;;16.77;12.53;;;;;;;20.06;48.10;102799.25;5014611;28;20207;-79
2021/11/09 10:10:41;;;;;;;23.53;12.90;;;;;;;19.16;49.12;102808.34;5014196;28;20207;-78
2021/11/09 10:13:10;;;;;;;18.90;12.87;;;;;;;18.89;50.29;102803.53;5014235;28;20390;-79
2021/11/09 10:15:38;;;;;;;19.80;12.43;;;;;;;17.17;54.19;102805.09;5013682;28;20676;-79
2021/11/09 10:18:06;;;;;;;21.50;12.37;;;;;;;16.74;55.28;102815.19;5013241;28;20195;-79
2021/11/09 10:20:49;;;;;;;19.07;11.63;;;;;;;16.56;55.19;102812.13;5014441;28;20211;-79
2021/11/09 10:23:22;;;;;;;21.47;12.63;;;;;;;16.47;55.87;102804.09;5016017;28;20219;-80
2021/11/09 10:25:49;;;;;;;24.57;13.57;;;;;;;16.18;56.82;102805.88;5015623;28;20183;-79
2021/11/09 10:28:21;;;;;;;24.90;13.87;;;;;;;16.52;56.66;102800.81;5015300;28;20194;-79
2021/11/09 10:30:59;;;;;;;20.30;12.57;;;;;;;16.69;55.78;102801.25;5015400;28;20439;-77
2021/11/09 10:33:27;;;;;;;23.80;13.07;;;;;;;16.70;56.07;102795.25;5015932;28;20187;-79
2021/11/09 10:35:54;;;;;;;17.43;11.03;;;;;;;16.77;55.95;102792.00;4998212;28;20199;-78
2021/11/09 10:38:31;;;;;;;19.30;12.60;;;;;;;16.85;56.04;102791.34;5015104;28;20206;-79
2021/11/09 10:40:58;;;;;;;20.53;11.37;;;;;;;17.42;54.64;102782.41;5018258;28;20222;-77
2021/11/09 10:43:25;;;;;;;20.73;11.70;;;;;;;16.67;54.55;102785.69;5015163;28;20192;-78
2021/11/09 10:45:51;;;;;;;20.97;11.53;;;;;;;16.69;54.71;102794.38;4997764;28;20656;-78
2021/11/09 10:48:19;;;;;;;19.17;11.10;;;;;;;16.65;53.59;102779.63;5014231;28;20680;-78
2021/11/09 10:50:47;;;;;;;25.80;10.50;;;;;;;16.55;54.89;102779.31;5014852;28;20622;-79
2021/11/09 10:56:13;;;;;;;15.60;8.77;;;;;;;17.52;50.72;102762.75;5014551;28;20226;-79
2021/11/09 11:03:59;;;;;;;14.47;7.10;;;;;;;19.16;45.33;102777.16;5013607;28;20188;-79
2021/11/09 11:06:36;;;;;;;17.23;8.20;;;;;;;19.64;43.45;102762.28;5014743;28;20278;-79
2021/11/09 11:09:11;;;;;;;15.33;7.93;;;;;;;18.70;46.07;102772.91;4991756;28;20342;-79
2021/11/09 11:11:45;;;;;;;16.27;7.37;;;;;;;19.39;44.78;102762.81;5014799;28;20202;-80
2021/11/09 11:14:16;;;;;;;15.95;7.25;;;;;;;18.99;44.36;102763.91;5014275;28;20179;-76
2021/11/09 11:16:50;;;;;;;14.00;7.40;;;;;;;18.04;48.05;102762.97;5011627;28;20246;-79
2021/11/09 11:19:20;;;;;;;14.97;7.33;;;;;;;18.96;46.58;102755.19;4992266;28;20223;-77
2021/11/09 11:21:47;;;;;;;15.88;7.47;;;;;;;18.69;45.40;102757.31;5007846;28;20193;-78
2021/11/09 11:24:14;;;;;;;13.05;7.07;;;;;;;18.91;45.83;102756.84;5013964;28;20675;-78
2021/11/09 11:26:44;;;;;;;13.00;7.00;;;;;;;19.84;42.98;102750.41;5012706;28;20257;-79
2021/11/09 11:29:14;;;;;;;18.02;7.07;;;;;;;20.26;41.82;102746.59;5014947;28;20302;-78
2021/11/09 11:31:39;;;;;;;13.57;6.47;;;;;;;20.09;41.52;102755.09;5014622;28;20226;-79
2021/11/09 11:34:05;;;;;;;16.88;5.70;;;;;;;20.32;41.75;102749.25;5013716;28;20182;-79
2021/11/09 11:36:30;;;;;;;13.02;5.90;;;;;;;19.52;42.69;102756.91;5013384;28;20238;-78
2021/11/09 11:39:00;;;;;;;9.00;4.95;;;;;;;20.88;39.79;102739.34;5015368;28;20203;-78
2021/11/09 11:41:31;;;;;;;13.40;6.00;;;;;;;19.74;40.71;102748.56;4997132;28;20211;-79
2021/11/09 11:44:00;;;;;;;11.57;5.40;;;;;;;20.25;40.12;102743.97;4995452;28;20668;-80
2021/11/09 11:46:32;;;;;;;15.17;5.50;;;;;;;20.87;39.16;102735.00;5012710;28;20248;-79
2021/11/09 11:49:16;;;;;;;11.07;5.82;;;;;;;21.99;36.58;102735.69;5001674;28;20206;-79
2021/11/09 11:51:44;;;;;;;13.00;5.63;;;;;;;22.58;35.59;102728.00;5020617;28;20187;-80
2021/11/09 11:54:11;;;;;;;9.30;5.07;;;;;;;22.56;35.83;102731.47;5015629;28;20652;-78
2021/11/09 11:56:41;;;;;;;10.45;5.43;;;;;;;23.37;34.54;102719.19;5013771;28;20215;-80
2021/11/09 11:59:07;;;;;;;14.65;5.93;;;;;;;21.40;37.59;102731.03;5013906;28;20201;-80
2021/11/09 12:01:44;;;;;;;13.82;5.18;;;;;;;20.49;38.39;102737.28;5012018;28;20179;-79
2021/11/09 12:04:11;;;;;;;13.32;5.45;;;;;;;21.38;38.67;102718.00;4998641;28;20202;-78
2021/11/09 12:06:52;;;;;;;8.82;5.00;;;;;;;20.93;38.68;102714.25;4995482;28;20192;-79
2021/11/09 12:09:32;;;;;;;11.75;4.90;;;;;;;21.04;39.35;102716.06;5013704;28;20591;-79
2021/11/09 12:12:21;;;;;;;14.93;5.53;;;;;;;20.52;38.95;102707.81;5012611;28;20195;-79
2021/11/09 12:14:54;;;;;;;11.33;4.93;;;;;;;18.91;41.65;102718.78;4992996;28;20235;-79
2021/11/09 12:17:32;;;;;;;10.03;4.57;;;;;;;18.42;42.92;102729.19;5001335;28;20187;-78
2021/11/09 12:20:06;;;;;;;13.17;5.50;;;;;;;19.19;42.94;102715.72;5012820;28;20221;-80
2021/11/09 12:22:48;;;;;;;9.90;4.60;;;;;;;19.12;41.42;102723.41;5013474;28;20245;-77
2021/11/09 12:25:36;;;;;;;10.40;5.03;;;;;;;20.75;38.30;102711.47;5013881;28;20266;-78
2021/11/09 12:28:07;;;;;;;9.30;4.57;;;;;;;21.09;36.94;102698.72;5014080;28;20187;-79
2021/11/09 12:30:32;;;;;;;11.73;4.90;;;;;;;20.57;38.25;102704.38;5013733;28;20214;-78
2021/11/09 12:33:18;;;;;;;9.43;4.70;;;;;;;21.20;37.48;102704.88;5012548;28;20179;-79
2021/11/09 12:36:11;;;;;;;11.40;5.10;;;;;;;20.91;37.17;102702.94;5011737;28;20272;-78
2021/11/09 12:38:44;;;;;;;12.43;4.90;;;;;;;21.17;36.97;102709.19;5012591;28;20207;-77
2021/11/09 12:41:27;;;;;;;13.43;5.00;;;;;;;19.25;39.49;102714.97;5013055;28;20238;-78
2021/11/09 12:43:56;;;;;;;9.93;4.53;;;;;;;19.53;38.48;102704.09;5011495;28;20538;-78
2021/11/09 12:46:41;;;;;;;10.23;4.47;;;;;;;19.20;39.53;102719.22;5011909;28;20213;-78
2021/11/09 12:49:11;;;;;;;10.03;4.20;;;;;;;19.16;39.96;102710.47;5013235;28;20191;-78
2021/11/09 12:51:39;;;;;;;10.57;4.23;;;;;;;19.97;39.17;102708.97;5013549;28;20572;-78
2021/11/09 12:54:07;;;;;;;10.13;4.60;;;;;;;20.54;38.21;102693.94;5011715;28;20191;-77
2021/11/09 12:56:47;;;;;;;8.90;4.33;;;;;;;19.77;38.45;102713.03;5011395;28;20246;-78
2021/11/09 12:59:19;;;;;;;12.10;4.90;;;;;;;19.98;38.36;102702.91;5012213;28;20350;-79
2021/11/09 13:04:17;;;;;;;12.37;4.90;;;;;;;19.63;38.96;102699.00;5009438;28;20195;-78
2021/11/09 13:09:42;;;;;;;8.47;4.17;;;;;;;21.21;36.18;102683.16;5010788;28;20206;-78
2021/11/09 13:12:23;;;;;;;7.85;3.72;;;;;;;22.38;35.05;102685.25;5014067;28;20195;-79
2021/11/09 13:15:02;;;;;;;9.40;4.37;;;;;;;21.82;35.59;102684.31;5014831;28;20219;-77
2021/11/09 13:17:36;;;;;;;12.60;4.50;;;;;;;22.33;34.81;102688.75;5015760;28;20198;-76
2021/11/09 13:20:18;;;;;;;12.48;4.28;;;;;;;23.44;33.06;102670.34;5016238;28;20714;-77
2021/11/09 13:22:56;;;;;;;12.00;4.70;;;;;;;22.24;34.06;102681.78;5014972;28;20186;-79
2021/11/09 13:25:30;;;;;;;10.32;4.43;;;;;;;22.25;34.38;102686.16;5015591;28;20255;-76
2021/11/09 13:27:56;;;;;;;10.32;4.10;;;;;;;22.11;34.91;102675.66;5015643;28;20191;-79
2021/11/09 13:30:24;;;;;;;7.90;4.20;;;;;;;22.77;34.20;102677.47;5015501;28;20215;-79